Time;durP1;ratioP1;P1;durP2;ratioP2;P2;SDS_P1;SDS_P2;PMS_P1;PMS_P2;Temp;Humidity;BMP_temperature;BMP_pressure;BME280_temperature;BME280_humidity;BME280_pressure;Samples;Min_cycle;Max_cycle;Signal;HPM_P1;HPM_P2
2024/03/07 00:00:03;;;;;;;20.35;9.20;;;11.10;74.50;;;;;;4938447;29;20028;-80
2024/03/07 00:02:29;;;;;;;16.83;8.52;;;11.10;74.60;;;;;;4938617;29;20059;-80
2024/03/07 00:04:55;;;;;;;17.70;9.10;;;11.10;74.50;;;;;;4938506;29;20696;-78
2024/03/07 00:07:21;;;;;;;16.13;8.68;;;11.10;74.80;;;;;;4938436;29;20481;-79
2024/03/07 00:09:47;;;;;;;16.15;8.40;;;11.10;74.50;;;;;;4921549;29;20027;-79
2024/03/07 00:12:12;;;;;;;15.55;9.02;;;11.10;74.50;;;;;;4938419;29;20052;-81
2024/03/07 00:14:38;;;;;;;16.40;8.90;;;11.20;74.70;;;;;;4938225;29;20039;-80
2024/03/07 00:17:03;;;;;;;15.07;7.85;;;11.20;74.60;;;;;;4938018;29;20051;-80
2024/03/07 00:19:29;;;;;;;15.80;7.43;;;11.10;74.40;;;;;;4938150;29;21231;-80
2024/03/07 00:21:59;;;;;;;16.45;7.97;;;11.10;74.30;;;;;;4938099;29;20650;-80
2024/03/07 00:24:24;;;;;;;16.50;8.60;;;11.20;74.40;;;;;;4937771;29;20031;-81
2024/03/07 00:26:51;;;;;;;15.30;8.27;;;11.20;74.10;;;;;;4938026;29;20163;-80
2024/03/07 00:29:20;;;;;;;16.42;8.45;;;11.10;74.20;;;;;;4937896;29;20032;-80
2024/03/07 00:31:46;;;;;;;18.33;8.30;;;11.10;74.30;;;;;;4937929;29;20044;-81
2024/03/07 00:34:16;;;;;;;18.02;8.30;;;11.10;74.50;;;;;;4920855;29;20028;-80
2024/03/07 00:36:42;;;;;;;14.30;8.02;;;11.10;74.30;;;;;;4938211;29;20122;-79
2024/03/07 00:39:11;;;;;;;18.77;8.50;;;11.10;74.50;;;;;;4937756;29;20480;-79
2024/03/07 00:41:41;;;;;;;16.70;8.40;;;11.20;74.60;;;;;;4937850;29;20433;-81
2024/03/07 00:44:09;;;;;;;19.17;9.48;;;11.20;74.60;;;;;;4937848;29;20070;-79
2024/03/07 00:46:36;;;;;;;23.13;9.43;;;11.10;74.50;;;;;;4937822;29;20046;-80
2024/03/07 00:49:02;;;;;;;18.50;8.90;;;11.10;74.80;;;;;;4937708;29;20476;-78
2024/03/07 00:51:28;;;;;;;19.30;8.57;;;11.10;74.80;;;;;;4937486;29;20047;-78
2024/03/07 00:53:54;;;;;;;17.50;8.80;;;11.10;75.10;;;;;;4937681;29;20036;-79
2024/03/07 00:56:21;;;;;;;15.93;8.73;;;11.10;75.10;;;;;;4937459;29;20066;-79
2024/03/07 00:58:50;;;;;;;15.80;8.18;;;11.20;75.20;;;;;;4919939;29;20091;-81
2024/03/07 01:01:17;;;;;;;16.35;8.07;;;11.20;76.30;;;;;;4937208;29;20487;-80
2024/03/07 01:03:43;;;;;;;18.45;9.07;;;11.20;75.20;;;;;;4937470;29;20039;-79
2024/03/07 01:06:11;;;;;;;16.90;8.27;;;11.20;75.30;;;;;;4937575;29;20415;-79
2024/03/07 01:08:38;;;;;;;14.38;7.82;;;11.20;75.90;;;;;;4943875;29;20035;-79
2024/03/07 01:11:12;;;;;;;21.65;8.05;;;11.20;75.40;;;;;;4956205;29;20031;-79
2024/03/07 01:13:38;;;;;;;18.85;8.43;;;11.20;75.50;;;;;;4956335;29;20037;-79
2024/03/07 01:16:04;;;;;;;17.95;8.40;;;11.20;75.60;;;;;;4956529;29;20075;-80
2024/03/07 01:18:33;;;;;;;18.33;8.57;;;11.30;75.70;;;;;;4956585;29;20078;-79
2024/03/07 01:20:59;;;;;;;14.00;7.88;;;11.20;75.20;;;;;;4956611;29;20043;-79
2024/03/07 01:23:24;;;;;;;17.63;9.05;;;11.30;75.30;;;;;;4938917;29;20043;-79
2024/03/07 01:25:50;;;;;;;17.73;8.40;;;11.30;75.50;;;;;;4956216;29;20039;-78
2024/03/07 01:28:17;;;;;;;18.67;10.20;;;11.20;75.40;;;;;;4956554;29;20047;-79
2024/03/07 01:30:43;;;;;;;17.48;9.18;;;11.30;75.60;;;;;;4955886;29;20038;-79
2024/03/07 01:33:08;;;;;;;19.00;9.63;;;11.30;75.70;;;;;;4938373;29;20035;-79
2024/03/07 01:35:34;;;;;;;18.83;9.98;;;11.30;75.60;;;;;;4955941;29;20110;-79
2024/03/07 01:37:59;;;;;;;21.33;10.45;;;11.30;75.60;;;;;;4955926;29;20404;-79
2024/03/07 01:40:25;;;;;;;18.80;10.05;;;11.30;75.60;;;;;;4956033;29;20031;-78
2024/03/07 01:42:51;;;;;;;16.55;9.77;;;11.30;75.60;;;;;;4956226;29;20063;-79
2024/03/07 01:45:19;;;;;;;22.10;10.70;;;11.30;75.70;;;;;;4956159;29;20043;-78
2024/03/07 01:47:45;;;;;;;20.15;10.07;;;11.20;76.10;;;;;;4957269;29;20027;-80
2024/03/07 01:50:12;;;;;;;23.05;11.23;;;11.20;75.50;;;;;;4958350;29;20043;-78
2024/03/07 01:52:41;;;;;;;23.10;10.32;;;11.10;75.60;;;;;;4957717;29;20082;-80
2024/03/07 01:55:09;;;;;;;25.92;10.80;;;11.00;75.40;;;;;;4959850;29;20036;-80
2024/03/07 01:57:35;;;;;;;18.55;10.25;;;11.00;75.90;;;;;;4958902;29;20097;-79
2024/03/07 02:00:05;;;;;;;21.73;11.25;;;11.00;75.80;;;;;;4955796;29;20031;-80
2024/03/07 02:02:30;;;;;;;19.20;10.18;;;10.90;76.00;;;;;;4955335;28;20043;-79
2024/03/07 02:04:56;;;;;;;21.05;11.23;;;10.90;76.10;;;;;;4955911;29;20035;-79
2024/03/07 02:07:22;;;;;;;18.08;10.75;;;10.90;76.10;;;;;;4955793;29;20094;-77
2024/03/07 02:09:47;;;;;;;18.70;11.15;;;10.90;76.50;;;;;;4955783;29;20476;-80
2024/03/07 02:12:13;;;;;;;21.38;11.45;;;10.80;76.30;;;;;;4955479;29;20054;-79
2024/03/07 02:14:39;;;;;;;20.48;10.88;;;10.80;76.80;;;;;;4955788;29;20027;-79
2024/03/07 02:17:04;;;;;;;19.77;10.93;;;10.80;76.70;;;;;;4955336;29;20130;-79
2024/03/07 02:19:32;;;;;;;20.02;10.70;;;10.80;76.70;;;;;;4955528;29;20051;-79
2024/03/07 02:21:58;;;;;;;18.95;10.35;;;10.70;76.80;;;;;;4955084;29;20062;-79
2024/03/07 02:24:24;;;;;;;21.85;11.43;;;10.70;76.60;;;;;;4955221;29;20031;-79
2024/03/07 02:26:50;;;;;;;19.98;11.45;;;10.70;76.80;;;;;;4955359;29;20078;-79
2024/03/07 02:29:16;;;;;;;17.73;9.93;;;10.70;76.80;;;;;;4955093;29;20039;-78
2024/03/07 02:31:41;;;;;;;20.77;11.02;;;10.70;77.00;;;;;;4955373;29;20070;-79
2024/03/07 02:34:07;;;;;;;16.88;9.90;;;10.70;76.60;;;;;;4954941;29;20546;-79
2024/03/07 02:36:33;;;;;;;16.90;9.75;;;10.60;76.80;;;;;;4954661;29;20539;-78
2024/03/07 02:39:00;;;;;;;14.82;9.23;;;10.60;76.90;;;;;;4955002;29;20031;-78
2024/03/07 02:41:26;;;;;;;15.57;9.38;;;10.50;76.50;;;;;;4955175;29;20407;-79
2024/03/07 02:43:52;;;;;;;15.15;9.50;;;10.40;77.00;;;;;;4954708;29;20054;-80
2024/03/07 02:46:18;;;;;;;13.95;9.98;;;10.50;77.10;;;;;;4954987;29;20039;-81
2024/03/07 02:48:43;;;;;;;21.30;10.23;;;10.40;76.60;;;;;;4955428;29;20024;-80
2024/03/07 02:51:09;;;;;;;15.07;9.48;;;10.40;76.90;;;;;;4955000;29;20039;-79
2024/03/07 02:53:35;;;;;;;17.27;9.45;;;10.40;77.00;;;;;;4955151;29;20046;-82
2024/03/07 02:56:01;;;;;;;19.42;10.23;;;10.40;77.10;;;;;;4955005;29;20031;-79
2024/03/07 02:58:26;;;;;;;17.40;9.90;;;10.40;77.20;;;;;;4955111;29;20036;-79
2024/03/07 03:01:02;;;;;;;18.15;9.68;;;10.30;77.10;;;;;;4954800;29;20035;-79
2024/03/07 03:03:31;;;;;;;22.20;9.93;;;10.30;77.40;;;;;;4953060;29;20031;-79
2024/03/07 03:05:57;;;;;;;19.67;9.80;;;10.30;77.70;;;;;;4954435;29;20031;-78
2024/03/07 03:08:23;;;;;;;16.45;9.75;;;10.40;77.90;;;;;;4954825;29;20503;-79
2024/03/07 03:10:51;;;;;;;18.02;9.80;;;10.40;77.60;;;;;;4955442;29;20043;-78
2024/03/07 03:13:17;;;;;;;17.08;9.32;;;10.40;77.60;;;;;;4954946;29;20122;-80
2024/03/07 03:15:42;;;;;;;15.75;9.35;;;10.40;77.90;;;;;;4955030;29;20059;-80
2024/03/07 03:18:09;;;;;;;15.75;9.52;;;10.40;77.70;;;;;;4954065;29;20056;-79
2024/03/07 03:20:38;;;;;;;17.55;9.68;;;10.30;77.70;;;;;;4954392;29;20129;-79
2024/03/07 03:23:05;;;;;;;19.95;8.93;;;10.30;77.50;;;;;;4954173;29;20373;-79
2024/03/07 03:25:34;;;;;;;18.77;9.43;;;10.30;77.60;;;;;;4953178;29;20381;-80
2024/03/07 03:28:09;;;;;;;16.65;9.80;;;10.40;77.70;;;;;;4954673;29;20400;-79
2024/03/07 03:30:38;;;;;;;20.50;9.82;;;10.40;78.80;;;;;;4936668;29;20035;-79
2024/03/07 03:33:05;;;;;;;18.98;11.00;;;10.30;78.60;;;;;;4954143;29;20555;-79
2024/03/07 03:35:31;;;;;;;16.98;10.35;;;10.30;77.10;;;;;;4954676;29;20032;-79
2024/03/07 03:37:57;;;;;;;17.65;10.32;;;10.30;77.30;;;;;;4954415;29;20119;-79
2024/03/07 03:40:23;;;;;;;21.95;10.20;;;10.20;77.20;;;;;;4954583;29;20043;-79
2024/03/07 03:42:48;;;;;;;17.10;11.10;;;10.20;77.20;;;;;;4954263;29;20031;-79
2024/03/07 03:45:15;;;;;;;21.38;10.25;;;10.20;77.60;;;;;;4936520;29;20075;-80
2024/03/07 03:47:42;;;;;;;21.80;11.02;;;10.20;77.70;;;;;;4954043;29;20043;-79
2024/03/07 03:50:11;;;;;;;24.25;11.98;;;10.20;77.40;;;;;;4954022;29;20501;-79
2024/03/07 03:52:37;;;;;;;20.05;10.88;;;10.10;77.70;;;;;;4953913;29;20106;-79
2024/03/07 03:55:09;;;;;;;16.80;11.20;;;10.10;77.80;;;;;;4952860;29;20127;-79
2024/03/07 03:57:35;;;;;;;19.98;10.85;;;10.00;78.00;;;;;;4936742;29;20043;-79
2024/03/07 04:00:09;;;;;;;19.50;11.10;;;10.00;77.90;;;;;;4954032;29;20038;-79
2024/03/07 04:02:36;;;;;;;17.90;9.50;;;9.90;79.30;;;;;;4954048;29;20031;-80
2024/03/07 04:05:03;;;;;;;17.77;9.75;;;9.80;79.20;;;;;;4936745;29;20452;-79
2024/03/07 04:07:31;;;;;;;16.50;9.70;;;9.70;79.80;;;;;;4953819;29;20034;-79
2024/03/07 04:09:58;;;;;;;13.68;9.38;;;9.60;79.90;;;;;;4953825;29;20035;-80
2024/03/07 04:12:24;;;;;;;16.65;9.68;;;9.50;80.10;;;;;;4953607;29;20122;-80
2024/03/07 04:14:49;;;;;;;16.60;9.80;;;9.40;80.20;;;;;;4953737;29;20039;-79
2024/03/07 04:17:15;;;;;;;17.65;10.00;;;9.50;80.50;;;;;;4947445;23;20067;-79
2024/03/07 04:19:41;;;;;;;17.58;10.00;;;9.50;80.60;;;;;;4935102;29;20102;-79
2024/03/07 04:22:08;;;;;;;19.45;10.65;;;9.60;80.20;;;;;;4935187;29;20055;-79
2024/03/07 04:24:35;;;;;;;16.80;9.63;;;9.50;80.20;;;;;;4934934;29;20051;-78
2024/03/07 04:27:03;;;;;;;16.52;9.23;;;9.50;80.30;;;;;;4938571;29;20036;-79
2024/03/07 04:29:33;;;;;;;16.38;10.55;;;9.50;80.60;;;;;;4938521;29;20047;-78
2024/03/07 04:32:01;;;;;;;18.15;9.25;;;9.50;80.80;;;;;;4938155;29;20043;-80
2024/03/07 04:34:27;;;;;;;14.80;8.93;;;9.40;80.60;;;;;;4938435;29;20415;-79
2024/03/07 04:36:53;;;;;;;15.43;8.75;;;9.40;81.10;;;;;;4938270;29;20547;-77
2024/03/07 04:39:32;;;;;;;16.35;9.00;;;9.40;81.20;;;;;;4920924;29;20031;-80
2024/03/07 04:42:08;;;;;;;14.73;8.35;;;9.50;81.70;;;;;;4938306;29;20048;-80
2024/03/07 04:44:36;;;;;;;14.95;8.05;;;9.50;81.20;;;;;;4941487;29;20052;-80
2024/03/07 04:47:03;;;;;;;15.98;8.48;;;9.60;81.70;;;;;;4940608;29;20032;-79
2024/03/07 04:49:30;;;;;;;14.45;7.55;;;9.60;81.00;;;;;;4938730;29;20032;-79
2024/03/07 04:51:58;;;;;;;12.65;7.40;;;9.60;81.10;;;;;;4937841;29;20044;-79
2024/03/07 04:54:25;;;;;;;13.43;7.45;;;9.60;80.90;;;;;;4938273;29;20095;-78
2024/03/07 04:56:52;;;;;;;14.15;7.35;;;9.60;80.90;;;;;;4938267;29;20603;-79
2024/03/07 04:59:18;;;;;;;11.45;6.05;;;9.60;81.10;;;;;;4920595;29;20043;-79
2024/03/07 05:01:45;;;;;;;9.20;5.75;;;9.60;81.10;;;;;;4938013;29;20123;-79
2024/03/07 05:04:13;;;;;;;15.05;7.07;;;9.40;81.30;;;;;;4937463;29;20039;-78
2024/03/07 05:06:39;;;;;;;13.68;6.88;;;9.40;81.30;;;;;;4940598;29;20040;-80
2024/03/07 05:09:06;;;;;;;13.10;6.85;;;9.30;81.80;;;;;;4937821;29;20480;-79
2024/03/07 05:11:33;;;;;;;12.75;6.60;;;9.20;82.00;;;;;;4937556;29;20035;-79
2024/03/07 05:13:59;;;;;;;11.40;7.10;;;9.30;82.40;;;;;;4937788;29;20040;-79
2024/03/07 05:16:29;;;;;;;11.90;6.90;;;9.20;82.80;;;;;;4937033;29;20046;-79
2024/03/07 05:18:59;;;;;;;11.32;7.00;;;9.20;83.40;;;;;;4937371;29;20120;-79
2024/03/07 05:24:03;;;;;;;10.60;6.28;;;9.10;83.30;;;;;;4937233;29;20172;-80
2024/03/07 05:26:37;;;;;;;13.88;7.00;;;9.20;83.60;;;;;;4936876;29;20040;-80
2024/03/07 05:29:10;;;;;;;15.85;7.68;;;9.20;83.80;;;;;;4919827;29;20138;-79
2024/03/07 05:31:44;;;;;;;13.57;7.60;;;9.10;83.80;;;;;;4937242;29;20523;-81
2024/03/07 05:34:09;;;;;;;17.25;7.38;;;9.10;83.70;;;;;;4937377;29;20032;-80
2024/03/07 05:36:36;;;;;;;12.20;7.25;;;9.10;83.60;;;;;;4936111;29;20046;-81
2024/03/07 05:39:08;;;;;;;12.73;7.47;;;9.10;83.70;;;;;;4937218;29;20039;-81
2024/03/07 05:41:34;;;;;;;14.00;7.25;;;9.10;83.80;;;;;;4937087;29;20067;-79
2024/03/07 05:44:00;;;;;;;12.50;6.97;;;9.10;83.90;;;;;;4936981;29;20132;-80
2024/03/07 05:46:26;;;;;;;12.23;7.43;;;9.10;84.20;;;;;;4936959;29;20495;-79
2024/03/07 05:48:55;;;;;;;13.45;6.65;;;9.00;84.60;;;;;;4936844;29;20036;-80
2024/03/07 05:51:24;;;;;;;14.52;7.03;;;9.00;84.90;;;;;;4936657;29;20083;-78
2024/03/07 05:53:51;;;;;;;11.85;7.47;;;9.00;85.40;;;;;;4936591;29;20040;-79
2024/03/07 05:56:17;;;;;;;11.32;7.00;;;9.00;85.00;;;;;;4936512;29;20043;-79
2024/03/07 05:58:42;;;;;;;12.25;7.38;;;9.00;85.00;;;;;;4919226;29;20069;-79
2024/03/07 06:01:09;;;;;;;12.60;7.95;;;9.00;85.10;;;;;;4936755;29;20036;-80
2024/03/07 06:03:35;;;;;;;13.15;7.45;;;9.10;85.10;;;;;;4936470;29;20035;-79
2024/03/07 06:06:01;;;;;;;13.98;7.32;;;9.20;84.90;;;;;;4936369;29;20531;-80
2024/03/07 06:08:27;;;;;;;11.18;6.80;;;9.20;84.80;;;;;;4936929;29;20621;-80
2024/03/07 06:10:53;;;;;;;12.13;6.90;;;9.20;84.80;;;;;;4936847;29;20067;-80
2024/03/07 06:13:19;;;;;;;12.73;6.45;;;9.20;85.40;;;;;;4936717;29;20110;-81
2024/03/07 06:15:46;;;;;;;9.68;5.88;;;9.10;85.60;;;;;;4936364;29;20056;-80
2024/03/07 06:18:13;;;;;;;12.32;6.65;;;9.10;85.60;;;;;;4936773;29;20062;-82
2024/03/07 06:20:40;;;;;;;13.75;6.80;;;9.10;85.50;;;;;;4936224;29;20436;-79
2024/03/07 06:23:07;;;;;;;10.48;6.40;;;9.20;85.30;;;;;;4935963;29;20028;-81
2024/03/07 06:25:36;;;;;;;11.85;6.20;;;9.20;85.50;;;;;;4936386;29;20104;-79
2024/03/07 06:28:09;;;;;;;11.23;6.25;;;9.20;85.40;;;;;;4936127;29;20463;-79
2024/03/07 06:30:36;;;;;;;10.20;6.60;;;9.20;85.70;;;;;;4936081;29;20032;-79
2024/03/07 06:33:02;;;;;;;11.27;6.85;;;9.30;85.60;;;;;;4935934;29;20106;-81
2024/03/07 06:35:28;;;;;;;9.25;6.50;;;10.00;84.80;;;;;;4936024;29;20083;-80
2024/03/07 06:37:54;;;;;;;9.05;6.20;;;10.60;82.40;;;;;;4935814;29;20039;-77
2024/03/07 06:40:22;;;;;;;11.25;6.97;;;11.40;80.70;;;;;;4935874;29;20031;-79
2024/03/07 06:42:48;;;;;;;12.05;7.30;;;12.30;79.20;;;;;;4935629;29;20027;-80
2024/03/07 06:45:15;;;;;;;10.73;5.68;;;13.10;75.90;;;;;;4935507;29;20035;-80
2024/03/07 06:47:41;;;;;;;8.90;5.82;;;13.90;74.00;;;;;;4935340;29;20028;-81
2024/03/07 06:50:09;;;;;;;11.77;6.07;;;14.50;72.30;;;;;;4936452;29;20492;-79
2024/03/07 06:52:35;;;;;;;10.10;5.88;;;15.30;71.00;;;;;;4935510;29;20500;-79
2024/03/07 06:55:03;;;;;;;10.23;6.18;;;15.60;70.10;;;;;;4935730;29;20058;-79
2024/03/07 06:57:29;;;;;;;8.65;5.78;;;15.80;69.10;;;;;;4918241;29;20467;-74
2024/03/07 06:59:55;;;;;;;9.40;5.95;;;16.00;68.00;;;;;;4939750;29;20035;-82
2024/03/07 07:02:21;;;;;;;13.85;8.32;;;16.20;67.30;;;;;;4938474;29;20119;-80
2024/03/07 07:04:47;;;;;;;12.73;6.88;;;16.60;66.50;;;;;;4918352;29;20042;-83
2024/03/07 07:07:14;;;;;;;10.80;5.90;;;17.30;65.30;;;;;;4935383;29;20046;-78
2024/03/07 07:09:40;;;;;;;10.65;6.68;;;18.00;63.70;;;;;;4935393;29;20032;-78
2024/03/07 07:12:07;;;;;;;19.83;6.95;;;18.30;62.90;;;;;;4935211;29;20060;-81
2024/03/07 07:14:35;;;;;;;14.02;5.78;;;18.30;62.40;;;;;;4934804;29;20038;-79
2024/03/07 07:17:01;;;;;;;10.82;5.30;;;18.60;61.60;;;;;;4934711;29;20055;-79
2024/03/07 07:19:27;;;;;;;10.77;5.38;;;19.00;60.50;;;;;;4934784;29;20395;-78
2024/03/07 07:21:54;;;;;;;12.48;5.53;;;18.90;59.80;;;;;;4934625;29;20044;-80
2024/03/07 07:24:23;;;;;;;18.77;10.55;;;18.80;59.90;;;;;;4934907;29;20078;-79
2024/03/07 07:26:52;;;;;;;11.25;7.00;;;18.90;60.00;;;;;;4934780;29;20028;-78
2024/03/07 07:29:18;;;;;;;19.38;9.45;;;19.30;59.50;;;;;;4934896;29;20039;-78
2024/03/07 07:31:44;;;;;;;10.95;6.40;;;19.20;58.90;;;;;;4934703;29;20512;-79
2024/03/07 07:34:11;;;;;;;19.50;6.53;;;19.40;58.70;;;;;;4917597;29;20035;-79
2024/03/07 07:36:36;;;;;;;8.90;5.68;;;19.00;58.90;;;;;;4935057;29;20070;-79
2024/03/07 07:39:03;;;;;;;12.02;5.85;;;19.00;58.60;;;;;;4934911;29;20159;-80
2024/03/07 07:41:29;;;;;;;10.75;4.95;;;19.10;58.10;;;;;;4935138;29;20433;-77
2024/03/07 07:43:57;;;;;;;9.30;4.95;;;18.60;57.30;;;;;;4935016;29;20095;-78
2024/03/07 07:46:23;;;;;;;12.07;4.78;;;17.20;58.80;;;;;;4935045;29;20028;-68
2024/03/07 07:48:48;;;;;;;7.45;4.60;;;16.10;60.70;;;;;;4934808;29;20046;-69
2024/03/07 07:51:14;;;;;;;11.23;5.63;;;15.30;62.30;;;;;;4934913;29;20488;-69
2024/03/07 07:53:40;;;;;;;10.55;4.72;;;14.80;63.80;;;;;;4934888;29;20073;-68
2024/03/07 07:56:07;;;;;;;11.48;5.25;;;14.20;64.80;;;;;;4934963;29;20042;-69
2024/03/07 07:58:33;;;;;;;9.82;4.32;;;13.70;66.10;;;;;;4934829;29;20040;-68
2024/03/07 08:00:58;;;;;;;7.68;4.82;;;13.40;67.00;;;;;;4936911;29;20032;-67
2024/03/07 08:03:24;;;;;;;8.95;5.78;;;13.20;67.90;;;;;;4938391;29;20036;-68
2024/03/07 08:05:50;;;;;;;8.13;4.78;;;13.10;68.30;;;;;;4938506;29;20087;-68
2024/03/07 08:08:18;;;;;;;11.05;5.25;;;12.90;68.50;;;;;;4938319;29;20036;-68
2024/03/07 08:10:45;;;;;;;14.70;4.95;;;12.90;69.20;;;;;;4938534;29;20036;-69
2024/03/07 08:13:13;;;;;;;13.55;5.45;;;12.90;69.40;;;;;;4921076;29;20043;-68
2024/03/07 08:15:39;;;;;;;8.38;4.85;;;12.80;69.30;;;;;;4937974;29;20095;-68
2024/03/07 08:18:11;;;;;;;11.80;5.13;;;12.80;69.70;;;;;;4938261;29;20464;-68
2024/03/07 08:20:37;;;;;;;9.15;4.78;;;12.70;69.70;;;;;;4938382;29;20036;-68
2024/03/07 08:23:03;;;;;;;10.18;5.05;;;12.70;70.00;;;;;;4938168;29;20052;-67
2024/03/07 08:25:29;;;;;;;8.65;3.83;;;12.60;69.90;;;;;;4938116;29;20040;-69
2024/03/07 08:27:57;;;;;;;8.38;4.90;;;12.50;70.10;;;;;;4937619;29;20032;-69
2024/03/07 08:30:24;;;;;;;8.45;3.90;;;12.50;70.50;;;;;;4937544;29;20098;-69
2024/03/07 08:32:53;;;;;;;11.13;4.00;;;12.40;70.60;;;;;;4937627;29;20039;-68
2024/03/07 08:35:20;;;;;;;8.60;4.10;;;12.30;70.70;;;;;;4937660;29;20042;-68
2024/03/07 08:37:52;;;;;;;9.20;4.55;;;12.30;71.00;;;;;;4937525;29;20150;-69
2024/03/07 08:40:20;;;;;;;8.05;4.28;;;12.30;71.10;;;;;;4920419;29;20036;-69
2024/03/07 08:42:51;;;;;;;8.05;4.22;;;12.30;71.20;;;;;;4937534;29;20066;-68
2024/03/07 08:45:18;;;;;;;9.23;3.55;;;12.30;71.30;;;;;;4937460;29;20040;-69
2024/03/07 08:47:45;;;;;;;8.93;4.32;;;12.30;71.20;;;;;;4937404;29;20039;-69
2024/03/07 08:50:13;;;;;;;6.63;3.72;;;12.20;71.30;;;;;;4937242;29;20051;-69
2024/03/07 08:52:39;;;;;;;10.95;4.05;;;12.30;71.60;;;;;;4937230;29;20107;-69
2024/03/07 08:55:09;;;;;;;8.73;4.05;;;12.30;71.60;;;;;;4937254;29;20526;-69
2024/03/07 08:57:36;;;;;;;9.73;3.85;;;12.40;71.60;;;;;;4937326;29;20556;-69
2024/03/07 09:00:08;;;;;;;7.68;3.58;;;12.50;71.50;;;;;;4937242;29;20055;-69
2024/03/07 09:02:34;;;;;;;7.07;3.22;;;12.50;71.30;;;;;;4937041;29;20528;-69
2024/03/07 09:05:01;;;;;;;6.18;3.45;;;12.60;71.30;;;;;;4937256;29;20143;-69
2024/03/07 09:07:29;;;;;;;6.25;3.20;;;12.60;71.30;;;;;;4936997;29;20047;-70
2024/03/07 09:09:55;;;;;;;7.57;3.72;;;12.60;71.40;;;;;;4942736;29;20039;-70
2024/03/07 09:12:21;;;;;;;82.25;10.38;;;12.60;71.40;;;;;;4941778;28;20158;-68
2024/03/07 09:14:47;;;;;;;7.43;3.50;;;12.60;71.50;;;;;;4936835;29;20032;-68
2024/03/07 09:17:12;;;;;;;6.70;2.60;;;12.60;71.50;;;;;;4947055;29;20122;-69
2024/03/07 09:19:38;;;;;;;5.63;2.60;;;12.70;71.30;;;;;;4936757;29;20047;-66
2024/03/07 09:22:04;;;;;;;10.02;3.03;;;12.80;71.20;;;;;;4936417;29;20046;-69
2024/03/07 09:24:31;;;;;;;8.93;2.90;;;12.80;70.90;;;;;;4949073;29;20131;-67
2024/03/07 09:26:56;;;;;;;8.90;2.30;;;12.90;70.90;;;;;;4953856;29;20118;-68
2024/03/07 09:29:22;;;;;;;6.18;2.17;;;12.90;70.60;;;;;;4955261;29;20130;-69
2024/03/07 09:31:52;;;;;;;5.03;1.83;;;12.90;70.50;;;;;;4948831;29;20539;-68
2024/03/07 09:34:21;;;;;;;5.45;1.90;;;12.90;69.80;;;;;;4936968;29;20025;-67
2024/03/07 09:36:47;;;;;;;4.95;1.85;;;12.90;69.70;;;;;;4928873;29;20119;-68
2024/03/07 09:39:13;;;;;;;5.43;2.30;;;13.00;69.80;;;;;;4936442;29;20084;-67
2024/03/07 09:41:39;;;;;;;5.85;2.00;;;13.10;69.60;;;;;;4936635;29;20036;-67
2024/03/07 09:44:05;;;;;;;4.82;2.05;;;13.20;69.60;;;;;;4937307;29;20554;-68
2024/03/07 09:46:32;;;;;;;6.50;2.28;;;13.20;69.40;;;;;;4936253;29;20515;-66
2024/03/07 09:49:01;;;;;;;4.38;2.08;;;13.30;69.40;;;;;;4937424;29;20135;-68
2024/03/07 09:51:27;;;;;;;4.95;2.17;;;13.30;69.20;;;;;;4936431;29;20036;-66
2024/03/07 09:53:57;;;;;;;6.20;2.20;;;13.30;69.20;;;;;;4939060;29;20566;-67
2024/03/07 09:56:24;;;;;;;6.40;2.47;;;13.40;69.10;;;;;;4924721;29;20037;-69
2024/03/07 09:58:51;;;;;;;6.93;2.47;;;13.40;69.10;;;;;;4927974;29;20039;-68
2024/03/07 10:01:21;;;;;;;7.05;2.60;;;13.50;69.10;;;;;;4953952;29;20042;-66
2024/03/07 10:03:52;;;;;;;4.00;1.67;;;13.50;68.90;;;;;;4955416;29;20067;-67
2024/03/07 10:06:21;;;;;;;7.63;2.42;;;13.60;67.60;;;;;;4943343;29;20040;-68
2024/03/07 10:08:48;;;;;;;6.38;2.00;;;13.70;67.10;;;;;;4918749;29;20039;-67
2024/03/07 10:11:14;;;;;;;6.28;1.88;;;13.80;66.00;;;;;;4940341;29;20032;-69
2024/03/07 10:13:40;;;;;;;4.45;2.17;;;13.80;66.20;;;;;;4954333;29;20039;-76
2024/03/07 10:16:07;;;;;;;8.13;2.42;;;13.90;65.90;;;;;;4935139;29;20052;-72
2024/03/07 10:18:42;;;;;;;6.70;2.70;;;14.00;66.00;;;;;;4949607;29;20086;-71
2024/03/07 10:21:08;;;;;;;6.53;2.70;;;14.10;66.20;;;;;;4954860;29;20039;-71
2024/03/07 10:23:34;;;;;;;8.02;2.60;;;14.20;65.10;;;;;;4951909;28;20093;-72
2024/03/07 10:26:01;;;;;;;7.07;2.90;;;14.20;64.50;;;;;;4952470;29;20035;-69
2024/03/07 10:28:28;;;;;;;14.95;3.00;;;14.30;64.70;;;;;;4954840;29;20043;-67
2024/03/07 10:30:53;;;;;;;13.68;2.88;;;14.30;64.00;;;;;;4922346;29;20039;-70
2024/03/07 10:33:19;;;;;;;6.82;2.75;;;14.40;64.00;;;;;;4954693;29;20046;-67
2024/03/07 10:35:49;;;;;;;7.63;2.63;;;14.50;63.60;;;;;;4954749;29;20508;-73
2024/03/07 10:38:15;;;;;;;6.47;2.22;;;14.60;63.70;;;;;;4934995;29;20054;-73
2024/03/07 10:40:41;;;;;;;6.28;2.50;;;14.80;63.90;;;;;;4925302;29;20428;-73
2024/03/07 10:43:11;;;;;;;9.75;2.75;;;14.80;63.60;;;;;;4933559;29;20388;-71
2024/03/07 10:45:43;;;;;;;9.52;2.92;;;14.90;63.50;;;;;;4927547;29;20032;-70
2024/03/07 10:48:11;;;;;;;7.82;2.72;;;14.90;63.30;;;;;;4915934;29;20028;-71
2024/03/07 10:51:05;;;;;;;7.05;2.75;;;15.10;63.50;;;;;;4930242;29;20075;-73
2024/03/07 10:54:05;;;;;;;9.43;2.40;;;15.20;64.50;;;;;;4928620;29;20566;-76
2024/03/07 10:56:41;;;;;;;5.75;2.40;;;15.30;63.50;;;;;;4931016;29;20475;-81
2024/03/07 10:59:17;;;;;;;4.30;1.92;;;15.30;62.80;;;;;;4935879;29;20039;-75
2024/03/07 11:02:06;;;;;;;4.22;2.13;;;15.30;61.70;;;;;;4954078;29;20365;-74
2024/03/07 11:04:34;;;;;;;4.10;1.85;;;15.30;62.00;;;;;;4939781;29;20038;-74
2024/03/07 11:07:00;;;;;;;10.80;2.13;;;15.30;61.60;;;;;;4934723;29;20155;-74
2024/03/07 11:09:32;;;;;;;6.10;1.88;;;15.40;61.50;;;;;;4935170;29;20031;-73
2024/03/07 11:12:00;;;;;;;5.07;2.10;;;15.40;60.90;;;;;;4917924;29;20048;-74
2024/03/07 11:14:27;;;;;;;5.38;2.20;;;15.50;60.70;;;;;;4935334;29;20055;-74
2024/03/07 11:16:54;;;;;;;4.88;2.03;;;15.50;60.20;;;;;;4918098;29;20066;-73
2024/03/07 11:19:31;;;;;;;4.25;1.80;;;15.50;60.30;;;;;;4935370;29;20172;-74
2024/03/07 11:21:59;;;;;;;5.88;1.85;;;15.60;59.10;;;;;;4935100;29;20063;-74
2024/03/07 11:24:31;;;;;;;5.32;1.98;;;15.50;59.60;;;;;;4935141;29;20036;-74
2024/03/07 11:26:57;;;;;;;13.32;2.17;;;15.50;59.10;;;;;;4935202;29;20042;-74
2024/03/07 11:29:52;;;;;;;4.80;1.80;;;15.50;58.30;;;;;;4935224;29;20060;-72
2024/03/07 11:32:20;;;;;;;5.70;1.90;;;15.60;58.30;;;;;;4934879;29;20076;-74
2024/03/07 11:34:47;;;;;;;7.00;1.85;;;15.80;58.20;;;;;;4935477;29;20044;-73
2024/03/07 11:37:43;;;;;;;5.38;1.73;;;15.70;57.40;;;;;;4938695;29;20063;-73
2024/03/07 11:40:17;;;;;;;6.32;1.30;;;15.80;56.80;;;;;;4938689;29;20053;-73
2024/03/07 11:42:47;;;;;;;4.85;1.48;;;15.80;55.10;;;;;;4938980;29;20086;-73
2024/03/07 11:45:24;;;;;;;4.95;1.60;;;15.80;54.20;;;;;;4938695;29;20039;-72
2024/03/07 11:47:57;;;;;;;5.25;1.70;;;15.90;53.40;;;;;;4939024;29;20055;-73
2024/03/07 11:50:25;;;;;;;6.47;1.40;;;15.80;52.50;;;;;;4938915;29;20088;-72
2024/03/07 11:53:00;;;;;;;5.88;1.77;;;15.90;52.20;;;;;;4938528;29;20047;-73
2024/03/07 11:55:28;;;;;;;5.90;2.13;;;15.90;52.80;;;;;;4938795;29;20036;-74
2024/03/07 11:57:55;;;;;;;5.70;1.27;;;16.10;52.40;;;;;;4938724;29;20103;-73
2024/03/07 12:00:24;;;;;;;5.45;1.48;;;16.10;50.60;;;;;;4938646;29;20024;-75
2024/03/07 12:02:50;;;;;;;4.03;1.08;;;16.00;50.30;;;;;;4938600;29;20048;-73
2024/03/07 12:05:16;;;;;;;4.80;1.58;;;15.90;50.00;;;;;;4938444;29;20032;-73
2024/03/07 12:07:43;;;;;;;4.40;1.45;;;16.00;50.10;;;;;;4938423;29;20078;-73
2024/03/07 12:10:09;;;;;;;5.00;1.73;;;16.10;50.60;;;;;;4938314;29;20040;-73
2024/03/07 12:12:38;;;;;;;5.68;1.85;;;16.20;49.60;;;;;;4938117;29;20492;-73
2024/03/07 12:15:09;;;;;;;4.03;1.63;;;16.30;49.50;;;;;;4938184;29;20174;-73
2024/03/07 12:17:35;;;;;;;5.50;1.45;;;16.30;49.70;;;;;;4937898;29;20567;-74
2024/03/07 12:20:24;;;;;;;9.73;2.13;;;16.30;49.70;;;;;;4938243;29;20059;-75
2024/03/07 12:22:48;;;;;;;6.20;2.08;;;16.30;49.80;;;;;;4923498;29;20055;-73
2024/03/07 12:25:21;;;;;;;8.05;2.13;;;16.40;50.10;;;;;;4937973;29;20163;-74
2024/03/07 12:28:00;;;;;;;6.78;1.70;;;16.50;49.90;;;;;;4937760;29;20087;-73
2024/03/07 12:30:27;;;;;;;5.00;1.63;;;16.70;50.00;;;;;;4937879;29;20441;-73
2024/03/07 12:32:53;;;;;;;5.45;1.75;;;16.70;50.00;;;;;;4937601;29;20473;-72
2024/03/07 12:35:19;;;;;;;7.85;2.00;;;16.80;49.90;;;;;;4937893;29;20047;-73
2024/03/07 12:37:46;;;;;;;8.05;1.98;;;16.90;50.40;;;;;;4937929;29;20134;-74
2024/03/07 12:40:19;;;;;;;5.22;1.92;;;16.90;49.90;;;;;;4937991;29;20047;-74
2024/03/07 12:42:48;;;;;;;5.43;1.83;;;16.90;49.60;;;;;;4920471;29;20039;-74
2024/03/07 12:45:17;;;;;;;5.20;1.80;;;17.00;49.70;;;;;;4937503;29;20123;-73